CGMPW KGSO-KGSO
Flight info
| Callsign | CGMPW |
|---|---|
| Flight time | N/A |
| Altitude | 5000 |
| Route | VFR FLIGHT AROUND AREA OF GREENSBORO |
| Aircraft | PC24/L-VGD/A |
Departure
| Time | 2026-05-08 15:57 |
|---|---|
| Airport | Piedmont Triad International Airport (KGSO) |
Arrival
| Time | N/A |
|---|---|
| Airport | Piedmont Triad International Airport (KGSO) |
| Time | Latitude | Longitude | Altitude | Speed | Heading |
|---|---|---|---|---|---|
| 2026-05-08 15:26 | 36.09925 | -79.94655 | 925 ft | 0 kts | 228° |
| 2026-05-08 15:43 | 36.09925 | -79.94656 | 925 ft | 1 kts | 230° |
| 2026-05-08 15:44 | 36.09916 | -79.94731 | 931 ft | 11 kts | 235° |
| 2026-05-08 15:44 | 36.09861 | -79.94787 | 930 ft | 10 kts | 197° |
| 2026-05-08 15:44 | 36.09801 | -79.94756 | 929 ft | 11 kts | 136° |
| 2026-05-08 15:44 | 36.09740 | -79.94681 | 922 ft | 14 kts | 135° |
| 2026-05-08 15:45 | 36.09666 | -79.94589 | 917 ft | 16 kts | 135° |
| 2026-05-08 15:45 | 36.09581 | -79.94483 | 911 ft | 14 kts | 135° |
| 2026-05-08 15:45 | 36.09506 | -79.94393 | 907 ft | 16 kts | 135° |
| 2026-05-08 15:45 | 36.09423 | -79.94381 | 904 ft | 14 kts | 224° |
| 2026-05-08 15:46 | 36.09415 | -79.94391 | 904 ft | 0 kts | 225° |
| 2026-05-08 15:51 | 36.09406 | -79.94401 | 904 ft | 11 kts | 225° |
| 2026-05-08 15:51 | 36.09314 | -79.94517 | 906 ft | 20 kts | 226° |
| 2026-05-08 15:52 | 36.09200 | -79.94506 | 902 ft | 20 kts | 137° |
| 2026-05-08 15:52 | 36.09188 | -79.94493 | 901 ft | 0 kts | 141° |
| 2026-05-08 15:56 | 36.09165 | -79.94468 | 901 ft | 11 kts | 134° |
| 2026-05-08 15:56 | 36.09176 | -79.94378 | 900 ft | 19 kts | 47° |
| 2026-05-08 15:56 | 36.09473 | -79.93998 | 902 ft | 108 kts | 45° |
| 2026-05-08 15:57 | 36.10151 | -79.93165 | 1315 ft | 144 kts | 41° |
| 2026-05-08 15:57 | 36.10878 | -79.92559 | 2572 ft | 148 kts | 33° |
| 2026-05-08 15:57 | 36.12008 | -79.91844 | 2840 ft | 199 kts | 24° |
| 2026-05-08 15:57 | 36.13353 | -79.91241 | 3020 ft | 214 kts | 18° |
| 2026-05-08 15:58 | 36.14873 | -79.90840 | 3012 ft | 233 kts | 4° |
| 2026-05-08 15:58 | 36.16535 | -79.91008 | 3020 ft | 247 kts | 353° |
| 2026-05-08 15:58 | 36.18268 | -79.91320 | 2998 ft | 248 kts | 353° |
| 2026-05-08 15:58 | 36.19941 | -79.91641 | 2996 ft | 239 kts | 352° |
| 2026-05-08 15:59 | 36.21566 | -79.91957 | 2998 ft | 234 kts | 353° |
| 2026-05-08 15:59 | 36.23135 | -79.92265 | 2985 ft | 227 kts | 352° |
| 2026-05-08 15:59 | 36.24674 | -79.92585 | 2989 ft | 221 kts | 352° |
| 2026-05-08 15:59 | 36.26184 | -79.92885 | 2985 ft | 218 kts | 352° |
| 2026-05-08 16:00 | 36.27684 | -79.93184 | 2984 ft | 218 kts | 352° |
| 2026-05-08 16:00 | 36.29155 | -79.93489 | 2995 ft | 210 kts | 352° |
| 2026-05-08 16:00 | 36.30594 | -79.93781 | 2987 ft | 208 kts | 352° |
| 2026-05-08 16:00 | 36.32016 | -79.94062 | 3003 ft | 207 kts | 353° |
| 2026-05-08 16:01 | 36.33430 | -79.94351 | 2990 ft | 204 kts | 352° |
| 2026-05-08 16:01 | 36.34805 | -79.94623 | 2989 ft | 202 kts | 352° |
| 2026-05-08 16:01 | 36.36182 | -79.94887 | 2987 ft | 199 kts | 352° |
| 2026-05-08 16:01 | 36.37536 | -79.95140 | 2994 ft | 196 kts | 352° |
| 2026-05-08 16:02 | 36.38876 | -79.95394 | 2992 ft | 194 kts | 352° |
| 2026-05-08 16:02 | 36.40206 | -79.95646 | 2991 ft | 193 kts | 352° |
| 2026-05-08 16:02 | 36.41537 | -79.95900 | 2995 ft | 192 kts | 352° |
| 2026-05-08 16:02 | 36.42858 | -79.96153 | 2991 ft | 191 kts | 352° |
| 2026-05-08 16:03 | 36.44172 | -79.96401 | 2991 ft | 190 kts | 352° |
| 2026-05-08 16:03 | 36.45478 | -79.96648 | 2993 ft | 191 kts | 352° |
| 2026-05-08 16:03 | 36.46786 | -79.96902 | 2988 ft | 189 kts | 352° |
| 2026-05-08 16:03 | 36.48079 | -79.97145 | 2990 ft | 187 kts | 353° |
| 2026-05-08 16:04 | 36.49365 | -79.97389 | 2988 ft | 187 kts | 352° |
| 2026-05-08 16:04 | 36.50633 | -79.97634 | 2988 ft | 186 kts | 352° |
| 2026-05-08 16:04 | 36.51932 | -79.97884 | 2987 ft | 187 kts | 352° |
| 2026-05-08 16:04 | 36.53202 | -79.98128 | 2988 ft | 186 kts | 352° |
| 2026-05-08 16:05 | 36.54480 | -79.98375 | 2985 ft | 185 kts | 352° |
| 2026-05-08 16:05 | 36.55754 | -79.98614 | 2991 ft | 186 kts | 352° |
| 2026-05-08 16:05 | 36.57033 | -79.98857 | 3012 ft | 186 kts | 352° |
| 2026-05-08 16:05 | 36.58319 | -79.99095 | 3012 ft | 186 kts | 352° |
| 2026-05-08 16:06 | 36.59605 | -79.99320 | 3013 ft | 187 kts | 352° |
| 2026-05-08 16:06 | 36.60897 | -79.99543 | 3016 ft | 188 kts | 352° |
| 2026-05-08 16:06 | 36.62192 | -79.99768 | 3018 ft | 189 kts | 352° |
| 2026-05-08 16:06 | 36.63453 | -79.99987 | 3019 ft | 189 kts | 352° |
| 2026-05-08 16:07 | 36.64757 | -80.00212 | 3016 ft | 189 kts | 352° |
| 2026-05-08 16:07 | 36.66059 | -80.00437 | 3017 ft | 188 kts | 352° |
| 2026-05-08 16:07 | 36.66917 | -80.00587 | 3016 ft | 188 kts | 352° |
| 2026-05-08 16:07 | 36.68211 | -80.00809 | 3017 ft | 188 kts | 352° |
| 2026-05-08 16:08 | 36.69435 | -80.01021 | 3016 ft | 188 kts | 352° |
| 2026-05-08 16:08 | 36.70734 | -80.01247 | 3019 ft | 188 kts | 352° |
| 2026-05-08 16:08 | 36.72037 | -80.01472 | 3018 ft | 189 kts | 352° |
| 2026-05-08 16:08 | 36.73338 | -80.01698 | 3015 ft | 188 kts | 352° |
| 2026-05-08 16:09 | 36.74635 | -80.01923 | 3011 ft | 188 kts | 352° |
| 2026-05-08 16:09 | 36.75930 | -80.02147 | 3008 ft | 188 kts | 352° |
| 2026-05-08 16:09 | 36.77203 | -80.02368 | 3005 ft | 187 kts | 352° |
| 2026-05-08 16:09 | 36.78495 | -80.02592 | 3002 ft | 187 kts | 352° |
| 2026-05-08 16:10 | 36.79784 | -80.02815 | 2996 ft | 187 kts | 352° |
| 2026-05-08 16:10 | 36.81075 | -80.03040 | 2993 ft | 187 kts | 352° |
| 2026-05-08 16:10 | 36.82369 | -80.03263 | 2994 ft | 187 kts | 352° |
| 2026-05-08 16:10 | 36.83662 | -80.03478 | 2988 ft | 187 kts | 352° |
| 2026-05-08 16:11 | 36.84954 | -80.03690 | 2986 ft | 187 kts | 352° |